Time;durP1;ratioP1;P1;durP2;ratioP2;P2;SDS_P1;SDS_P2;PMS_P1;PMS_P2;Temp;Humidity;BMP_temperature;BMP_pressure;BME280_temperature;BME280_humidity;BME280_pressure;Samples;Min_cycle;Max_cycle;Signal;HPM_P1;HPM_P2
2022/05/02 00:00:01;;;;;;;4.53;3.47;;;;;;;22.05;51.40;99357.91;4970884;29;20023;-92
2022/05/02 00:02:26;;;;;;;4.68;3.60;;;;;;;22.02;51.55;99355.47;4972508;29;20024;-91
2022/05/02 00:04:52;;;;;;;4.80;3.80;;;;;;;21.99;51.52;99356.53;4970970;29;20053;-90
2022/05/02 00:07:18;;;;;;;4.28;3.28;;;;;;;21.99;51.62;99349.38;4987390;28;20030;-92
2022/05/02 00:09:43;;;;;;;5.45;3.58;;;;;;;21.98;51.58;99341.50;4988922;28;20035;-91
2022/05/02 00:12:10;;;;;;;5.40;3.50;;;;;;;21.98;51.38;99350.34;4969757;29;20062;-90
2022/05/02 00:14:36;;;;;;;4.38;3.47;;;;;;;21.97;51.85;99337.16;4986652;28;20027;-91
2022/05/02 00:17:01;;;;;;;5.20;3.90;;;;;;;21.95;51.39;99342.59;4970323;29;20369;-89
2022/05/02 00:19:27;;;;;;;4.43;3.58;;;;;;;21.93;51.63;99333.84;4970004;29;20027;-89
2022/05/02 00:21:53;;;;;;;4.32;3.40;;;;;;;21.94;51.31;99335.56;4969638;29;20376;-87
2022/05/02 00:24:18;;;;;;;4.63;3.65;;;;;;;21.92;51.25;99333.94;4969422;29;20031;-88
2022/05/02 00:26:44;;;;;;;4.45;3.58;;;;;;;21.93;51.42;99333.84;4970108;29;20031;-86
2022/05/02 00:29:09;;;;;;;4.97;3.80;;;;;;;21.92;51.45;99325.97;4987204;28;20054;-88
2022/05/02 00:31:35;;;;;;;5.22;3.53;;;;;;;21.89;51.46;99332.34;4970008;29;20472;-88
2022/05/02 00:34:01;;;;;;;5.53;3.90;;;;;;;21.89;51.51;99323.53;4970148;29;20023;-87
2022/05/02 00:36:26;;;;;;;5.70;4.38;;;;;;;21.88;51.48;99328.00;4971756;29;20027;-86
2022/05/02 00:38:52;;;;;;;5.15;3.75;;;;;;;21.88;51.37;99330.66;4970623;28;20078;-86
2022/05/02 00:41:20;;;;;;;5.07;4.13;;;;;;;21.87;51.53;99323.63;4970640;29;20023;-88
2022/05/02 00:43:46;;;;;;;5.35;3.72;;;;;;;21.84;51.43;99321.22;4969980;29;20122;-88
2022/05/02 00:46:19;;;;;;;5.82;3.70;;;;;;;21.83;51.48;99327.44;4969588;29;20019;-87
2022/05/02 00:48:45;;;;;;;4.93;4.00;;;;;;;21.82;51.36;99326.63;4986456;28;20063;-87
2022/05/02 00:51:11;;;;;;;4.95;3.80;;;;;;;21.80;51.29;99317.03;4985672;28;20054;-88
2022/05/02 00:53:37;;;;;;;4.93;3.63;;;;;;;21.79;51.33;99310.88;4968779;29;20023;-87
2022/05/02 00:56:04;;;;;;;4.97;3.83;;;;;;;21.79;51.58;99315.34;4970126;29;20421;-89
2022/05/02 00:58:30;;;;;;;5.13;3.83;;;;;;;21.78;51.60;99313.66;4969938;29;20091;-88
2022/05/02 01:00:56;;;;;;;4.97;3.88;;;;;;;21.77;51.30;99306.59;4970417;28;20023;-87
2022/05/02 01:03:21;;;;;;;5.13;4.05;;;;;;;21.75;51.41;99308.53;4953768;29;20070;-88
2022/05/02 01:08:33;;;;;;;5.50;3.90;;;;;;;21.72;51.18;99310.44;4968525;29;20038;-87
2022/05/02 01:11:00;;;;;;;4.72;3.85;;;;;;;21.71;51.30;99303.41;4968790;29;20023;-86
2022/05/02 01:13:47;;;;;;;4.93;3.95;;;;;;;21.71;51.41;99298.09;4967094;29;20043;-86
2022/05/02 01:16:14;;;;;;;;;;;;;;;21.70;51.44;99296.41;4967900;29;20042;-88
2022/05/02 01:18:42;;;;;;;4.97;3.65;;;;;;;21.72;51.45;99293.66;4971311;29;19910;-88
2022/05/02 01:21:29;;;;;;;5.13;3.70;;;;;;;21.70;51.42;99296.41;4987915;28;20193;-89
2022/05/02 01:23:58;;;;;;;5.50;3.92;;;;;;;21.68;51.47;99298.28;4971950;29;20373;-89
2022/05/02 01:26:24;;;;;;;5.20;4.30;;;;;;;21.67;51.46;99291.28;4972520;29;20085;-89
2022/05/02 01:28:55;;;;;;;5.55;4.20;;;;;;;21.68;51.25;99298.28;4955790;29;20031;-90
2022/05/02 01:31:22;;;;;;;5.82;4.70;;;;;;;21.66;51.31;99289.59;4988678;28;20031;-89
2022/05/02 01:33:49;;;;;;;5.65;4.18;;;;;;;21.65;51.40;99292.34;4972625;29;20023;-88
2022/05/02 01:36:16;;;;;;;5.03;3.85;;;;;;;21.65;51.21;99292.34;4989180;28;20027;-89
2022/05/02 01:38:42;;;;;;;5.07;4.00;;;;;;;21.66;51.44;99294.91;4972877;29;20027;-92
2022/05/02 01:41:09;;;;;;;4.85;3.80;;;;;;;21.66;51.41;99294.03;4971743;28;20030;-86
2022/05/02 01:43:36;;;;;;;5.68;3.63;;;;;;;21.66;51.41;99288.72;4985069;28;20505;-88
2022/05/02 01:46:06;;;;;;;5.22;3.85;;;;;;;21.67;51.39;99290.41;4969417;29;20038;-89
2022/05/02 01:48:32;;;;;;;6.32;4.00;;;;;;;21.66;51.19;99288.72;4967873;29;20057;-87
2022/05/02 01:50:58;;;;;;;5.07;3.90;;;;;;;21.63;51.27;99284.47;4986804;28;20059;-86
2022/05/02 01:53:24;;;;;;;4.93;4.10;;;;;;;21.63;51.35;99292.44;4972482;29;20424;-88
2022/05/02 01:55:50;;;;;;;6.25;4.20;;;;;;;21.62;51.40;99290.72;4987886;28;20023;-88
2022/05/02 01:58:16;;;;;;;4.78;3.60;;;;;;;21.66;51.22;99289.59;4972242;28;20511;-88
2022/05/02 02:00:42;;;;;;;4.43;3.78;;;;;;;21.63;51.30;99281.81;4987540;28;20070;-88
2022/05/02 02:03:08;;;;;;;4.80;3.97;;;;;;;21.63;51.34;99279.16;4971190;29;20027;-87
2022/05/02 02:05:48;;;;;;;5.45;3.95;;;;;;;21.64;51.23;99286.16;4988425;28;20043;-87
2022/05/02 02:08:23;;;;;;;5.22;4.00;;;;;;;21.65;51.15;99279.06;4971951;29;20038;-87
2022/05/02 02:10:49;;;;;;;4.53;3.70;;;;;;;21.63;51.16;99278.28;4971444;29;20037;-89
2022/05/02 02:13:16;;;;;;;4.80;3.90;;;;;;;21.64;51.21;99285.31;4954470;29;20031;-87
2022/05/02 02:15:41;;;;;;;4.47;3.67;;;;;;;21.60;50.99;99274.91;4985450;28;20037;-89
2022/05/02 02:18:07;;;;;;;4.90;3.80;;;;;;;21.62;51.29;99280.09;4970369;29;20058;-88
2022/05/02 02:20:34;;;;;;;6.20;4.50;;;;;;;21.63;51.21;99273.84;4970886;29;20365;-86
2022/05/02 02:23:00;;;;;;;4.82;4.10;;;;;;;21.61;51.10;99278.41;4987209;28;20038;-86
2022/05/02 02:25:26;;;;;;;4.72;3.70;;;;;;;21.59;51.23;99272.34;4971034;29;20450;-89
2022/05/02 02:27:53;;;;;;;5.70;4.35;;;;;;;21.59;51.10;99262.56;4970219;29;20027;-88
2022/05/02 02:30:19;;;;;;;4.80;3.75;;;;;;;21.60;51.13;99263.44;4970287;29;20039;-86
2022/05/02 02:32:45;;;;;;;5.07;4.20;;;;;;;21.60;51.12;99268.75;4969462;29;20031;-86
2022/05/02 02:35:10;;;;;;;4.80;4.00;;;;;;;21.58;51.14;99260.03;4970827;29;20046;-87
2022/05/02 02:37:36;;;;;;;5.15;4.20;;;;;;;21.58;51.23;99260.88;4968947;29;20031;-86
2022/05/02 02:40:03;;;;;;;5.20;3.88;;;;;;;21.56;51.25;99259.28;4968928;29;20454;-88
2022/05/02 02:42:28;;;;;;;5.10;4.15;;;;;;;21.55;51.19;99257.59;4969382;29;20159;-87
2022/05/02 02:44:54;;;;;;;5.53;4.18;;;;;;;21.53;51.09;99262.13;4970618;29;20059;-87
2022/05/02 02:47:20;;;;;;;5.75;4.50;;;;;;;21.52;51.30;99255.97;4971879;28;20038;-87
2022/05/02 02:49:45;;;;;;;4.72;3.85;;;;;;;21.54;51.26;99247.91;4970791;29;20031;-86
2022/05/02 02:52:11;;;;;;;5.03;3.95;;;;;;;21.53;51.02;99256.81;4968479;29;20028;-88
2022/05/02 02:54:36;;;;;;;5.95;4.10;;;;;;;21.54;51.08;99250.53;4969113;29;20027;-88
2022/05/02 02:57:02;;;;;;;5.90;4.25;;;;;;;21.51;51.19;99251.63;4969957;29;20053;-90
2022/05/02 02:59:28;;;;;;;5.43;4.55;;;;;;;21.49;51.25;99244.72;4984648;28;20031;-90
2022/05/02 03:01:56;;;;;;;5.18;4.10;;;;;;;21.49;50.96;99239.41;4967622;28;20055;-90
2022/05/02 03:07:07;;;;;;;5.03;4.00;;;;;;;21.51;51.22;99243.66;4970031;29;20476;-90
2022/05/02 03:09:33;;;;;;;5.40;4.28;;;;;;;21.51;51.16;99242.81;4969363;29;20130;-90
2022/05/02 03:11:59;;;;;;;5.15;4.13;;;;;;;21.50;51.24;99235.81;4968143;29;20050;-90
2022/05/02 03:14:24;;;;;;;5.22;4.38;;;;;;;21.50;51.10;99238.44;4969361;29;20042;-90
2022/05/02 03:16:50;;;;;;;4.93;4.15;;;;;;;21.50;51.23;99236.63;4969520;28;20031;-89
2022/05/02 03:19:16;;;;;;;5.35;4.13;;;;;;;21.49;51.20;99242.06;4969702;29;20050;-89
2022/05/02 03:21:41;;;;;;;5.18;4.10;;;;;;;21.45;51.11;99239.59;4969646;29;20027;-87
2022/05/02 03:24:07;;;;;;;5.70;4.47;;;;;;;21.46;51.07;99246.59;4969091;29;20041;-86
2022/05/02 03:26:32;;;;;;;4.82;4.13;;;;;;;21.45;51.13;99234.28;4970893;29;20409;-88
2022/05/02 03:28:58;;;;;;;5.57;4.32;;;;;;;21.42;50.97;99231.84;4971656;29;20019;-89
2022/05/02 03:31:24;;;;;;;5.70;4.55;;;;;;;21.44;51.22;99237.91;4970879;29;20023;-89
2022/05/02 03:33:49;;;;;;;4.93;3.88;;;;;;;21.44;51.30;99237.03;4970902;29;20041;-88
2022/05/02 03:36:15;;;;;;;6.18;4.32;;;;;;;21.42;51.23;99234.50;4970094;29;20035;-90
2022/05/02 03:38:41;;;;;;;4.88;4.15;;;;;;;21.42;51.14;99231.84;4954667;29;20046;-89
2022/05/02 03:41:06;;;;;;;4.85;3.70;;;;;;;21.41;51.37;99240.75;4971234;28;20061;-89
2022/05/02 03:43:32;;;;;;;5.13;4.40;;;;;;;21.43;51.10;99236.22;4970294;29;20070;-87
2022/05/02 03:45:57;;;;;;;4.95;3.92;;;;;;;21.43;51.13;99232.69;4970225;29;20031;-89
2022/05/02 03:48:23;;;;;;;4.85;3.95;;;;;;;21.41;51.12;99232.78;4970295;29;20094;-88
2022/05/02 03:50:49;;;;;;;5.88;4.32;;;;;;;21.41;51.11;99230.13;4970992;29;20031;-89
2022/05/02 03:53:18;;;;;;;5.15;4.45;;;;;;;21.41;50.96;99238.09;4970909;29;20059;-87
2022/05/02 03:55:45;;;;;;;4.53;3.90;;;;;;;21.41;51.02;99238.09;4970260;29;20035;-88
2022/05/02 03:58:11;;;;;;;5.35;4.43;;;;;;;21.40;51.06;99232.91;4985824;28;20380;-88
2022/05/02 04:00:37;;;;;;;5.72;4.25;;;;;;;21.41;50.90;99230.13;4970734;29;20028;-89
2022/05/02 04:03:03;;;;;;;5.18;4.05;;;;;;;21.39;51.07;99234.69;4969982;29;20059;-86
2022/05/02 04:05:29;;;;;;;4.93;4.35;;;;;;;21.38;51.07;99235.66;4970097;29;20054;-89
2022/05/02 04:07:54;;;;;;;5.68;4.55;;;;;;;21.39;50.90;99237.34;4970635;29;20035;-88
2022/05/02 04:10:20;;;;;;;5.15;4.30;;;;;;;21.37;50.97;99231.31;4967964;29;20453;-89
2022/05/02 04:12:46;;;;;;;4.93;4.07;;;;;;;21.34;51.14;99231.50;4967081;28;20027;-88
2022/05/02 04:15:12;;;;;;;4.80;4.10;;;;;;;21.35;51.07;99242.97;4967773;29;20023;-86
2022/05/02 04:17:39;;;;;;;5.60;4.32;;;;;;;21.35;50.90;99240.31;4967741;29;20098;-88
2022/05/02 04:20:07;;;;;;;5.20;4.00;;;;;;;21.33;51.01;99232.47;4984413;28;20078;-87
2022/05/02 04:22:34;;;;;;;5.05;4.25;;;;;;;21.33;50.99;99235.97;4968378;28;20125;-89
2022/05/02 04:24:59;;;;;;;4.97;4.00;;;;;;;21.34;51.04;99239.47;4967377;29;20041;-88
2022/05/02 04:27:25;;;;;;;5.30;4.60;;;;;;;21.32;51.24;99239.56;4968295;29;20058;-88
2022/05/02 04:29:50;;;;;;;5.05;4.25;;;;;;;21.33;50.97;99243.06;4984400;28;20061;-88
2022/05/02 04:32:16;;;;;;;5.63;4.32;;;;;;;21.30;51.23;99230.84;4983641;28;20092;-86
2022/05/02 04:34:42;;;;;;;5.30;4.68;;;;;;;21.31;51.15;99231.72;4983998;28;20070;-87
2022/05/02 04:37:07;;;;;;;5.97;4.82;;;;;;;21.30;50.90;99235.31;4967382;29;20031;-88
2022/05/02 04:39:33;;;;;;;5.93;4.53;;;;;;;21.30;51.05;99240.59;4968425;29;20070;-87
2022/05/02 04:42:00;;;;;;;5.20;3.92;;;;;;;21.29;51.15;99234.47;4968055;29;20425;-86
2022/05/02 04:44:25;;;;;;;5.32;4.28;;;;;;;21.28;51.00;99234.56;4967035;29;20055;-85
2022/05/02 04:46:51;;;;;;;5.60;4.70;;;;;;;21.28;51.16;99231.91;4984850;28;20085;-87
2022/05/02 04:49:16;;;;;;;5.35;4.38;;;;;;;21.27;51.21;99235.53;4968242;29;20031;-86
2022/05/02 04:51:42;;;;;;;4.93;4.10;;;;;;;21.26;51.09;99233.81;4968400;29;20350;-87
2022/05/02 04:54:08;;;;;;;5.95;4.75;;;;;;;21.26;51.04;99232.00;4968003;29;20445;-87
2022/05/02 04:56:33;;;;;;;5.45;4.40;;;;;;;21.25;50.92;99226.81;4983988;28;20130;-88
2022/05/02 04:58:59;;;;;;;6.18;4.70;;;;;;;21.24;51.18;99225.97;4968245;28;20098;-87
2022/05/02 05:01:25;;;;;;;6.03;4.75;;;;;;;21.24;50.79;99231.25;4968081;29;20067;-88
2022/05/02 05:03:50;;;;;;;5.53;4.60;;;;;;;21.25;50.99;99232.13;4968387;29;20030;-87
2022/05/02 05:06:16;;;;;;;5.85;4.70;;;;;;;21.22;50.96;99234.97;4967698;29;20046;-87
2022/05/02 05:08:42;;;;;;;6.18;5.20;;;;;;;21.21;50.85;99230.63;4966772;29;20092;-87
2022/05/02 05:11:33;;;;;;;5.40;4.28;;;;;;;21.22;50.95;99234.97;4982222;28;20023;-87
2022/05/02 05:17:20;;;;;;;5.63;4.50;;;;;;;21.19;51.17;99233.38;4968287;29;20046;-87
2022/05/02 05:20:01;;;;;;;5.20;4.50;;;;;;;21.20;50.95;99235.06;4967256;29;20031;-88
2022/05/02 05:22:51;;;;;;;5.70;4.75;;;;;;;21.20;51.05;99235.06;4967987;29;20031;-89
2022/05/02 05:25:36;;;;;;;5.13;4.53;;;;;;;21.19;51.06;99238.66;4967930;28;20038;-87
2022/05/02 05:28:29;;;;;;;5.63;4.78;;;;;;;21.15;50.99;99232.72;4967836;29;20031;-88
2022/05/02 05:31:36;;;;;;;5.93;5.13;;;;;;;21.15;51.04;99240.69;4968825;29;20034;-87
2022/05/02 05:34:29;;;;;;;6.25;5.03;;;;;;;21.16;51.12;99238.88;4955382;29;20111;-88
2022/05/02 05:37:32;;;;;;;5.78;4.82;;;;;;;21.14;51.19;99236.31;4967199;29;20128;-89
2022/05/02 05:40:23;;;;;;;5.80;4.97;;;;;;;21.15;51.02;99238.03;4968025;29;20023;-88
2022/05/02 05:43:14;;;;;;;6.13;5.40;;;;;;;21.14;51.05;99244.28;4967370;29;20838;-88
2022/05/02 05:45:52;;;;;;;6.20;5.07;;;;;;;21.14;51.12;99246.94;4966769;29;20094;-87
2022/05/02 05:48:47;;;;;;;6.47;5.38;;;;;;;21.14;51.08;99252.25;4967656;29;20046;-88
2022/05/02 05:51:28;;;;;;;7.22;5.60;;;;;;;21.12;51.15;99254.13;4966205;29;20035;-89
2022/05/02 05:54:18;;;;;;;6.18;5.15;;;;;;;21.13;51.06;99249.69;4966351;29;20054;-89
2022/05/02 05:57:03;;;;;;;6.45;5.15;;;;;;;21.13;51.00;99245.25;4966653;29;20027;-89
2022/05/02 05:59:50;;;;;;;5.78;4.75;;;;;;;21.12;50.89;99246.16;4968511;28;20087;-89
2022/05/02 06:02:19;;;;;;;6.57;5.20;;;;;;;21.12;50.88;99243.50;4965614;29;20031;-89
2022/05/02 06:04:51;;;;;;;5.88;5.15;;;;;;;21.11;51.07;99241.81;4965556;29;20058;-89
2022/05/02 06:07:19;;;;;;;5.82;5.00;;;;;;;21.10;50.85;99250.72;4980883;28;20058;-89
2022/05/02 06:09:45;;;;;;;5.85;5.18;;;;;;;21.11;51.04;99240.97;4965937;28;20107;-90
2022/05/02 06:12:15;;;;;;;6.10;5.18;;;;;;;21.10;50.95;99255.22;4981751;28;20035;-88
2022/05/02 06:20:18;;;;;;;5.93;5.00;;;;;;;21.08;50.92;99252.66;4967910;29;20042;-89
2022/05/02 06:22:46;;;;;;;6.60;5.22;;;;;;;21.08;50.93;99257.94;4968386;29;20027;-89
2022/05/02 06:25:13;;;;;;;6.20;5.30;;;;;;;21.08;50.82;99255.31;4970137;29;20023;-89
2022/05/02 06:27:42;;;;;;;6.80;5.63;;;;;;;21.06;50.86;99258.03;4970931;29;20063;-90
2022/05/02 06:30:09;;;;;;;6.63;5.50;;;;;;;21.07;50.94;99256.25;4970493;29;20044;-89
2022/05/02 06:32:42;;;;;;;7.22;5.68;;;;;;;21.08;51.02;99257.94;4971147;29;20084;-89
2022/05/02 06:35:08;;;;;;;6.85;5.38;;;;;;;21.07;51.00;99256.25;4971613;29;20072;-89
2022/05/02 06:38:01;;;;;;;7.00;5.80;;;;;;;21.07;51.01;99261.56;4971831;28;20123;-88
2022/05/02 06:40:37;;;;;;;6.32;5.38;;;;;;;21.08;50.80;99268.56;4971122;29;20051;-85
2022/05/02 06:43:08;;;;;;;;;;;;;;;21.09;50.79;99258.78;4987260;28;20051;-86
2022/05/02 06:46:12;;;;;;;6.38;5.47;;;;;;;21.08;50.78;99259.75;4971586;29;19938;-88
2022/05/02 06:48:59;;;;;;;6.60;5.50;;;;;;;21.08;51.10;99263.25;4969089;29;20042;-88
2022/05/02 06:51:35;;;;;;;5.63;5.00;;;;;;;21.06;50.91;99259.84;4970775;29;20027;-87
2022/05/02 06:54:27;;;;;;;6.07;5.43;;;;;;;21.07;50.77;99258.91;4986408;28;20027;-89
2022/05/02 06:57:20;;;;;;;5.50;4.93;;;;;;;21.06;50.84;99254.53;4957618;28;20035;-87
2022/05/02 07:00:06;;;;;;;6.35;5.47;;;;;;;21.07;50.99;99261.56;4970665;29;20027;-88
2022/05/02 07:02:54;;;;;;;6.55;5.55;;;;;;;21.08;50.88;99257.94;4968453;29;20047;-87
2022/05/02 07:05:29;;;;;;;5.85;4.82;;;;;;;21.09;50.78;99259.66;4969822;29;20042;-87
2022/05/02 07:08:02;;;;;;;6.18;5.07;;;;;;;21.09;51.04;99257.00;4968908;29;20031;-88
2022/05/02 07:10:35;;;;;;;5.75;4.97;;;;;;;21.10;50.78;99261.34;4970752;29;20106;-88
2022/05/02 07:13:29;;;;;;;6.22;5.28;;;;;;;21.10;50.94;99256.03;4971123;28;20037;-89
2022/05/02 07:16:25;;;;;;;6.57;5.38;;;;;;;21.11;50.72;99257.72;4970220;29;20023;-87
2022/05/02 07:19:09;;;;;;;6.43;5.70;;;;;;;21.13;50.83;99261.16;4970333;29;20042;-87
2022/05/02 07:22:01;;;;;;;6.60;5.20;;;;;;;21.13;50.69;99261.16;4970632;29;20108;-88
2022/05/02 07:24:32;;;;;;;6.25;5.05;;;;;;;21.15;50.61;99253.94;4963724;29;20098;-88
2022/05/02 07:27:31;;;;;;;6.55;5.70;;;;;;;21.13;50.73;99260.28;4969233;29;20038;-88
2022/05/02 07:29:58;;;;;;;6.50;5.50;;;;;;;21.15;50.67;99255.72;4971424;29;20034;-88
2022/05/02 07:32:25;;;;;;;6.63;5.75;;;;;;;21.14;50.49;99257.56;4970311;29;20087;-88
2022/05/02 07:34:52;;;;;;;6.63;5.75;;;;;;;21.14;50.66;99260.22;4972144;28;20027;-88
2022/05/02 07:37:22;;;;;;;7.07;5.45;;;;;;;21.16;50.64;99266.25;4971454;29;20042;-86
2022/05/02 07:39:52;;;;;;;6.45;5.38;;;;;;;21.15;50.54;99264.56;4969970;29;20038;-88
2022/05/02 07:42:19;;;;;;;6.45;5.25;;;;;;;21.15;50.58;99267.22;4969515;29;20091;-86
2022/05/02 07:44:48;;;;;;;6.45;5.47;;;;;;;21.16;50.80;99266.25;4971178;29;20543;-88
2022/05/02 07:47:16;;;;;;;6.80;6.03;;;;;;;21.19;50.53;99259.91;4970619;29;20046;-86
2022/05/02 07:49:47;;;;;;;6.68;5.97;;;;;;;21.17;50.67;99251.19;4969021;29;20035;-87
2022/05/02 07:52:19;;;;;;;7.18;5.60;;;;;;;21.18;50.63;99267.03;4971835;28;20023;-89
2022/05/02 07:54:47;;;;;;;7.38;5.65;;;;;;;21.17;50.75;99272.41;4970328;29;20027;-88
2022/05/02 07:57:15;;;;;;;7.78;5.68;;;;;;;21.17;50.80;99278.56;4969796;29;20087;-87
2022/05/02 07:59:41;;;;;;;6.78;5.97;;;;;;;21.18;50.63;99274.97;4969844;29;20011;-87
2022/05/02 08:02:08;;;;;;;6.40;5.57;;;;;;;21.19;50.57;99271.38;4970274;29;20027;-86
2022/05/02 08:04:38;;;;;;;7.38;6.03;;;;;;;21.21;50.46;99267.75;4988203;28;20027;-89
2022/05/02 08:07:14;;;;;;;6.82;5.70;;;;;;;21.21;50.54;99273.91;4971214;29;20031;-86
2022/05/02 08:10:07;;;;;;;6.72;6.03;;;;;;;21.23;50.50;99273.81;4970321;29;20045;-87
2022/05/02 08:12:54;;;;;;;5.55;4.95;;;;;;;21.23;50.44;99277.31;4971547;29;20031;-89
2022/05/02 08:15:24;;;;;;;;;;;;;;;21.26;50.58;99276.28;4970507;29;20139;-89
2022/05/02 08:18:11;;;;;;;5.97;5.28;;;;;;;21.24;50.29;99268.41;4970313;29;19922;-88
2022/05/02 08:21:02;;;;;;;6.40;5.50;;;;;;;21.26;50.38;99270.97;4970999;29;20409;-87
2022/05/02 08:27:24;;;;;;;6.63;5.93;;;;;;;21.27;50.33;99267.38;4972329;29;20063;-88
2022/05/02 08:29:59;;;;;;;6.10;4.90;;;;;;;21.25;50.36;99270.09;4968796;29;20042;-88
2022/05/02 08:32:40;;;;;;;6.32;5.50;;;;;;;21.26;50.49;99276.28;4968904;29;20061;-86
2022/05/02 08:35:31;;;;;;;6.47;5.70;;;;;;;21.28;50.22;99274.38;4968870;29;20086;-88
2022/05/02 08:38:18;;;;;;;7.28;6.10;;;;;;;21.26;50.31;99269.16;4969046;29;20588;-88
2022/05/02 08:41:08;;;;;;;7.28;6.05;;;;;;;21.29;50.25;99270.75;4970220;29;20027;-89
2022/05/02 08:44:09;;;;;;;6.90;5.60;;;;;;;21.27;50.31;99264.72;4971696;29;20051;-88
2022/05/02 08:46:52;;;;;;;6.65;5.40;;;;;;;21.24;50.33;99267.56;4972177;29;20042;-89
2022/05/02 08:49:40;;;;;;;6.43;5.53;;;;;;;21.26;50.20;99263.00;4973201;29;20042;-90
2022/05/02 08:52:30;;;;;;;6.35;5.53;;;;;;;21.27;50.58;99262.06;4972964;29;20034;-88
2022/05/02 08:55:07;;;;;;;6.82;5.60;;;;;;;21.25;50.53;99258.66;4974391;29;20030;-90
2022/05/02 08:58:08;;;;;;;7.10;5.75;;;;;;;21.24;50.62;99251.63;4974695;29;20038;-88
2022/05/02 09:00:45;;;;;;;6.90;6.20;;;;;;;21.24;50.60;99264.91;4973372;28;20114;-89
2022/05/02 09:04:03;;;;;;;7.07;6.00;;;;;;;21.22;50.64;99258.84;4974406;29;20103;-89
2022/05/02 09:07:06;;;;;;;7.80;6.00;;;;;;;21.23;50.53;99252.59;4972440;29;20058;-87
2022/05/02 09:09:45;;;;;;;7.07;6.10;;;;;;;21.25;50.54;99256.00;4970126;29;20063;-89
2022/05/02 09:12:41;;;;;;;6.63;5.97;;;;;;;21.26;50.81;99255.06;4969800;29;20031;-87
2022/05/02 09:15:13;;;;;;;6.90;5.75;;;;;;;21.27;50.51;99251.44;4970388;29;20031;-88
2022/05/02 09:18:06;;;;;;;6.78;5.88;;;;;;;21.27;50.80;99257.63;4969201;29;20035;-90
2022/05/02 09:20:58;;;;;;;7.50;5.40;;;;;;;21.28;50.44;99261.09;4969508;29;20039;-88
2022/05/02 09:23:29;;;;;;;7.78;5.60;;;;;;;21.30;50.72;99256.53;4944805;29;20389;-88
2022/05/02 09:26:01;;;;;;;7.07;5.60;;;;;;;21.30;50.62;99256.53;4969940;29;20031;-89
2022/05/02 09:28:36;;;;;;;6.50;5.60;;;;;;;21.32;50.82;99252.00;4970069;29;20031;-89
2022/05/02 09:31:30;;;;;;;6.60;5.88;;;;;;;21.34;50.49;99258.03;4987029;28;20071;-87
2022/05/02 09:34:18;;;;;;;6.20;5.40;;;;;;;21.37;50.72;99255.19;4971569;29;20031;-88
2022/05/02 09:37:01;;;;;;;6.25;5.60;;;;;;;21.37;50.60;99255.19;4971372;28;20027;-88
2022/05/02 09:39:49;;;;;;;6.32;5.72;;;;;;;21.39;50.37;99261.25;4970357;29;20028;-88
2022/05/02 09:42:25;;;;;;;7.22;5.55;;;;;;;21.39;50.47;99258.59;4971655;28;20041;-86
2022/05/02 09:51:29;;;;;;;6.53;5.78;;;;;;;21.43;50.38;99245.97;4970974;29;20042;-87
2022/05/02 09:54:13;;;;;;;6.25;5.43;;;;;;;21.43;50.22;99252.13;4970337;29;20035;-88
2022/05/02 09:56:45;;;;;;;6.43;5.60;;;;;;;21.44;50.40;99253.84;4969758;29;20027;-88
2022/05/02 09:59:26;;;;;;;6.28;5.40;;;;;;;21.45;50.21;99247.56;4968857;29;20031;-86
2022/05/02 10:02:21;;;;;;;6.47;5.63;;;;;;;21.46;50.39;99241.31;4969277;29;20023;-88
2022/05/02 10:04:59;;;;;;;6.53;5.53;;;;;;;21.47;50.44;99247.47;4962434;29;20201;-87
2022/05/02 10:07:25;;;;;;;5.90;5.18;;;;;;;21.48;50.45;99240.34;4970664;29;20062;-88
2022/05/02 10:09:51;;;;;;;7.25;5.80;;;;;;;21.48;50.47;99237.69;4972057;29;20054;-88
2022/05/02 10:12:24;;;;;;;7.03;6.07;;;;;;;21.49;50.21;99234.09;4972602;28;20027;-87
2022/05/02 10:15:22;;;;;;;6.45;5.35;;;;;;;21.51;50.28;99238.34;4973034;29;20046;-89
2022/05/02 10:17:58;;;;;;;5.95;5.07;;;;;;;21.53;50.21;99240.88;4946285;29;20039;-88
2022/05/02 10:20:27;;;;;;;;;;;;;;;21.55;50.02;99229.22;4974019;29;20035;-89
2022/05/02 10:23:31;;;;;;;6.55;5.47;;;;;;;21.56;50.07;99235.38;4973291;28;19910;-86
2022/05/02 10:26:25;;;;;;;6.35;5.47;;;;;;;21.58;50.32;99222.84;4935357;29;20043;-89
2022/05/02 10:29:15;;;;;;;6.40;5.10;;;;;;;21.59;50.33;99229.84;4973831;29;20042;-90
2022/05/02 10:31:47;;;;;;;6.07;5.25;;;;;;;21.59;50.11;99229.84;4974765;29;20035;-90
2022/05/02 10:34:20;;;;;;;6.40;5.32;;;;;;;21.61;49.98;99233.28;4973435;29;20035;-88
2022/05/02 10:36:50;;;;;;;7.07;5.38;;;;;;;21.62;50.16;99224.34;4973308;29;20051;-87
2022/05/02 10:39:38;;;;;;;6.53;5.70;;;;;;;21.61;50.24;99225.31;4973306;29;20035;-89
2022/05/02 10:42:06;;;;;;;6.07;5.35;;;;;;;21.62;50.37;99223.50;4973888;29;20019;-89
2022/05/02 10:44:45;;;;;;;6.43;5.32;;;;;;;21.64;50.10;99219.78;4989235;28;20067;-91
2022/05/02 10:47:11;;;;;;;;;;;;;;;21.66;50.30;99223.19;4973886;29;20031;-88
2022/05/02 10:49:57;;;;;;;;;;;;;;;21.66;50.11;99214.38;4974531;28;19922;-89
2022/05/02 10:52:44;;;;;;;6.30;5.50;;;;;;;21.67;50.28;99211.63;4972076;29;19910;-87
2022/05/02 10:55:19;;;;;;;6.38;5.40;;;;;;;21.68;50.37;99213.31;4972881;29;20083;-87
2022/05/02 10:57:59;;;;;;;6.47;5.63;;;;;;;21.69;50.12;99217.66;4988542;28;20035;-87
2022/05/02 11:00:26;;;;;;;6.35;5.20;;;;;;;21.70;50.07;99216.72;4974265;29;20027;-89
2022/05/02 11:02:51;;;;;;;6.40;5.40;;;;;;;21.72;50.16;99211.31;4990819;28;20397;-89
2022/05/02 11:05:46;;;;;;;6.63;5.68;;;;;;;21.73;49.95;99197.94;4974485;29;20031;-89
2022/05/02 11:08:26;;;;;;;6.88;6.10;;;;;;;21.75;50.04;99197.84;4947175;29;20039;-89
2022/05/02 11:11:07;;;;;;;6.22;5.63;;;;;;;21.78;49.98;99200.28;4974045;29;20492;-89
2022/05/02 11:13:47;;;;;;;5.90;5.30;;;;;;;21.80;50.08;99194.88;4974731;29;20023;-87
2022/05/02 11:16:36;;;;;;;6.38;5.15;;;;;;;21.80;49.98;99189.56;4976073;28;20031;-87
2022/05/02 11:22:40;;;;;;;6.43;5.35;;;;;;;21.83;49.83;99178.72;4921681;29;20043;-87
2022/05/02 11:25:22;;;;;;;5.55;4.95;;;;;;;21.84;50.21;99177.78;4916412;29;20028;-89
2022/05/02 11:27:56;;;;;;;5.90;5.28;;;;;;;21.83;50.10;99184.03;4963777;29;20035;-89
2022/05/02 11:30:55;;;;;;;5.68;4.88;;;;;;;21.85;50.04;99176.81;4974867;29;20023;-88
2022/05/02 11:33:50;;;;;;;5.45;4.72;;;;;;;21.86;49.91;99179.38;4974386;29;20062;-86
2022/05/02 11:36:24;;;;;;;6.25;5.25;;;;;;;21.88;49.95;99181.91;4965035;29;20073;-88
2022/05/02 11:38:59;;;;;;;6.18;5.22;;;;;;;21.88;50.03;99171.28;4973188;29;20027;-88
2022/05/02 11:41:29;;;;;;;6.10;5.20;;;;;;;21.91;50.05;99171.09;4972459;29;20027;-87
2022/05/02 11:44:15;;;;;;;6.90;5.22;;;;;;;21.92;49.98;99167.47;4971335;29;20054;-89
2022/05/02 11:47:06;;;;;;;5.95;5.32;;;;;;;21.93;49.98;99158.53;4971101;29;20043;-87
2022/05/02 11:49:59;;;;;;;5.22;4.72;;;;;;;21.94;49.98;99160.22;4972767;29;20049;-88
2022/05/02 11:52:35;;;;;;;6.05;5.10;;;;;;;21.96;50.03;99162.78;4972096;29;20023;-88
2022/05/02 11:55:02;;;;;;;6.95;5.20;;;;;;;21.98;49.92;99161.72;4988785;28;20481;-89
2022/05/02 11:57:34;;;;;;;6.72;5.53;;;;;;;21.98;49.86;99159.06;4973103;29;20101;-88
2022/05/02 12:00:14;;;;;;;6.53;5.57;;;;;;;22.02;49.93;99150.88;4971665;29;20027;-89
2022/05/02 12:03:01;;;;;;;6.90;5.35;;;;;;;22.03;49.80;99147.28;4972237;28;20007;-88
2022/05/02 12:05:35;;;;;;;6.07;5.25;;;;;;;22.04;49.78;99144.50;4972911;29;20027;-89
2022/05/02 12:08:03;;;;;;;6.72;5.28;;;;;;;22.06;49.81;99145.25;4988602;28;20058;-89
2022/05/02 12:10:35;;;;;;;6.28;5.18;;;;;;;22.07;49.70;99143.41;4989266;28;20472;-89
2022/05/02 12:13:04;;;;;;;7.63;5.32;;;;;;;22.10;49.69;99148.53;4973393;29;20031;-89
2022/05/02 12:15:30;;;;;;;6.25;5.13;;;;;;;22.11;49.81;99150.22;4972875;29;20042;-89
2022/05/02 12:18:03;;;;;;;6.65;5.57;;;;;;;22.13;49.85;99143.00;4972545;29;20051;-90
2022/05/02 12:20:31;;;;;;;6.07;5.07;;;;;;;22.13;49.88;99143.00;4973209;28;20031;-87
2022/05/02 12:23:31;;;;;;;6.07;4.57;;;;;;;22.13;49.75;99135.03;4973842;28;20045;-88
2022/05/02 12:25:57;;;;;;;6.32;5.38;;;;;;;22.15;49.83;99135.78;4972222;29;20043;-86
2022/05/02 12:28:41;;;;;;;6.95;5.28;;;;;;;22.17;49.51;99133.84;4973123;29;20098;-86
2022/05/02 12:31:15;;;;;;;6.10;5.05;;;;;;;22.18;49.71;99134.69;4974035;28;20445;-89
2022/05/02 12:33:45;;;;;;;5.90;5.00;;;;;;;22.21;49.86;99129.16;4943901;28;20050;-88